Kur, Russia
Current Conditions -  °F | °C
As of 1:30 AM on Friday 31 Oct 2014 (Local Time) from UHHH Reporting Station
Clear Clear  
Wind Chill: 19°   Ceiling: Unl
Heat Index: 25°   Visibility: 6mi
Dew Point: 23°   Wind: 4mph
Humidity: 93%   Direction: 290°WNW
Pressure: 30.21"   Gusts: NA
Location:  49.93°N, 134.63°E
Report Text: UHHH 301530Z 29002MPS CAVOK M04/M05 Q1023 NOSIG RMK QFE761/101423090060
Loading
Personal Weather Stations






























Interactive Weather Map
Tropical Storm Tracking
New forecast layout! Learn more

10-Day Weather Forecast

Advertisements
Track Severe Weather on mobile